Archiv-/Tagesdaten

--Timestamp---	Temp	Chill	HIndex	Humid	Dewpt	Wind	HiWind	WindDir	Rain	Barom	Solar	ET	UV
--------------	----	-----	------	-----	-----	----	------	-------	----	-----	-----	--	--
20080312 00:05	8.0	5.5	8.0	75	3.8	14	34	247	0.00	1000.545	0	0.000	0
20080312 00:10	8.0	5.8	8.0	75	3.8	13	29	270	0.00	1000.477	0	0.000	0
20080312 00:15	8.0	5.8	8.0	75	3.8	13	29	247	0.00	1000.444	0	0.000	0
20080312 00:20	8.1	6.2	8.1	75	3.9	11	24	247	0.00	1000.342	0	0.000	0
20080312 00:25	8.2	5.7	8.2	75	4.0	14	26	247	0.00	1000.342	0	0.000	0
20080312 00:30	8.2	6.0	8.2	75	4.1	13	26	247	0.00	1000.410	0	0.000	0
20080312 00:35	8.3	6.1	8.3	75	4.1	13	27	247	0.00	1000.477	0	0.000	0
20080312 00:40	8.2	6.3	8.2	75	4.1	11	27	247	0.00	1000.477	0	0.000	0
20080312 00:45	8.2	6.6	8.2	76	4.2	10	24	247	0.00	1000.410	0	0.000	0
20080312 00:50	8.3	6.7	8.3	75	4.1	10	26	247	0.00	1000.207	0	0.000	0
20080312 00:55	8.4	6.5	8.4	75	4.2	11	24	247	0.00	1000.105	0	0.000	0
20080312 01:00	8.5	6.4	8.5	75	4.3	13	32	247	0.00	1000.037	0	0.020	0
20080312 01:05	8.6	6.8	8.6	75	4.4	11	29	247	0.00	999.969	0	0.000	0
20080312 01:10	8.6	6.4	8.6	76	4.6	13	26	225	0.00	999.834	0	0.000	0
20080312 01:15	8.7	6.8	8.7	76	4.7	11	31	247	0.00	999.732	0	0.000	0
20080312 01:20	8.7	6.6	8.7	76	4.7	13	27	247	0.00	999.631	0	0.000	0
20080312 01:25	8.8	7.0	8.8	76	4.8	11	27	247	0.00	999.428	0	0.000	0
20080312 01:30	8.9	6.9	8.9	76	4.9	13	27	225	0.00	999.123	0	0.000	0
20080312 01:35	8.9	7.2	8.9	76	4.9	11	26	247	0.00	999.157	0	0.000	0
20080312 01:40	9.1	7.1	9.1	75	4.9	13	24	225	0.00	999.292	0	0.000	0
20080312 01:45	9.2	7.4	9.2	75	5.0	11	26	247	0.00	999.292	0	0.000	0
20080312 01:50	9.3	7.6	9.3	75	5.1	11	26	247	0.00	999.055	0	0.000	0
20080312 01:55	9.6	7.1	9.6	74	5.2	18	39	225	0.00	998.852	0	0.000	0
20080312 02:00	9.8	7.4	9.8	73	5.2	18	40	247	0.00	998.615	0	0.040	0
20080312 02:05	9.9	7.9	9.9	73	5.3	14	27	247	0.00	998.547	0	0.000	0
20080312 02:10	10.0	10.0	10.0	72	5.2	16	35	225	0.00	998.344	0	0.000	0
20080312 02:15	10.2	10.2	10.2	71	5.2	19	39	247	0.00	998.310	0	0.000	0
20080312 02:20	10.2	10.2	10.2	71	5.2	14	32	247	0.00	998.242	0	0.000	0
20080312 02:25	10.3	10.3	10.3	71	5.3	16	32	247	0.00	998.107	0	0.000	0
20080312 02:30	10.4	10.4	10.4	70	5.2	16	29	247	0.00	998.005	0	0.000	0
20080312 02:35	10.5	10.5	10.5	70	5.3	13	34	247	0.00	998.005	0	0.000	0
20080312 02:40	10.6	10.6	10.6	69	5.2	16	31	247	0.00	997.971	0	0.000	0
20080312 02:45	10.7	10.7	10.7	69	5.2	16	32	247	0.00	997.971	0	0.000	0
20080312 02:50	10.7	10.7	10.7	69	5.3	16	34	247	0.00	997.938	0	0.000	0
20080312 02:55	10.7	10.7	10.7	69	5.2	16	34	247	0.00	998.039	0	0.000	0
20080312 03:00	10.8	10.8	10.8	69	5.3	19	40	247	0.00	997.836	0	0.040	0
20080312 03:05	10.8	10.8	10.8	69	5.3	18	37	247	0.00	997.904	0	0.000	0
20080312 03:10	10.9	10.9	10.9	68	5.2	19	37	247	0.00	997.667	0	0.000	0
20080312 03:15	10.8	10.8	10.8	68	5.1	18	35	247	0.00	997.836	0	0.000	0
20080312 03:20	10.8	10.8	10.8	68	5.1	19	37	247	0.00	997.768	0	0.000	0
20080312 03:25	10.8	10.8	10.8	68	5.2	18	39	247	0.00	997.565	0	0.000	0
20080312 03:30	10.9	10.9	10.9	67	5.1	18	35	247	0.00	997.430	0	0.000	0
20080312 03:35	10.9	10.9	10.9	68	5.2	18	35	247	0.00	997.599	0	0.000	0
20080312 03:40	10.8	10.8	10.8	69	5.3	18	34	225	0.00	997.667	0	0.000	0
20080312 03:45	10.8	10.8	10.8	69	5.3	19	40	247	0.00	997.599	0	0.000	0
20080312 03:50	10.6	10.6	10.6	70	5.4	19	47	247	0.00	997.464	0	0.000	0
20080312 03:55	10.7	10.7	10.7	70	5.4	19	32	247	0.00	997.430	0	0.000	0
20080312 04:00	10.6	10.6	10.6	71	5.5	16	40	247	0.00	997.430	0	0.060	0
20080312 04:05	10.5	10.5	10.5	71	5.5	16	35	247	0.00	997.430	0	0.000	0
20080312 04:10	10.6	10.6	10.6	70	5.3	19	39	247	0.00	997.227	0	0.000	0
20080312 04:15	10.8	10.8	10.8	69	5.3	19	40	247	0.00	997.193	0	0.000	0
20080312 04:20	10.9	10.9	10.9	68	5.2	21	39	247	0.00	996.956	0	0.000	0
20080312 04:25	10.9	10.9	10.9	68	5.3	23	39	247	0.00	996.854	0	0.000	0
20080312 04:30	10.8	10.8	10.8	68	5.2	18	35	247	0.00	996.888	0	0.000	0
20080312 04:35	10.8	10.8	10.8	68	5.2	19	42	247	0.00	996.854	0	0.000	0
20080312 04:40	10.8	10.8	10.8	68	5.2	23	43	247	0.00	996.854	0	0.000	0
20080312 04:45	10.9	10.9	10.9	68	5.2	19	34	247	0.00	996.922	0	0.000	0
20080312 04:50	10.8	10.8	10.8	69	5.4	18	34	247	0.00	997.023	0	0.000	0
20080312 04:55	10.8	10.8	10.8	69	5.4	18	39	247	0.00	996.888	0	0.000	0
20080312 05:00	10.8	10.8	10.8	69	5.4	23	48	247	0.00	996.922	0	0.060	0
20080312 05:05	10.9	10.9	10.9	69	5.4	23	47	247	0.00	997.057	0	0.000	0
20080312 05:10	10.8	10.8	10.8	70	5.6	18	43	247	0.00	996.956	0	0.000	0
20080312 05:15	10.9	10.9	10.9	69	5.4	21	40	247	0.00	996.922	0	0.000	0
20080312 05:20	10.9	10.9	10.9	69	5.4	18	37	247	0.00	997.057	0	0.000	0
20080312 05:25	11.0	11.0	11.0	69	5.5	19	42	247	0.00	996.956	0	0.000	0
20080312 05:30	11.0	11.0	11.0	69	5.5	18	34	247	0.00	996.990	0	0.000	0
20080312 05:35	11.2	11.2	11.2	69	5.7	23	42	247	0.00	996.990	0	0.000	0
20080312 05:40	11.1	11.1	11.1	69	5.6	21	40	247	0.00	996.888	0	0.000	0
20080312 05:45	11.1	11.1	11.1	72	6.2	26	47	247	0.00	996.990	0	0.000	0
20080312 05:50	10.6	10.6	10.6	75	6.4	23	43	247	0.20	996.820	0	0.000	0
20080312 05:55	10.3	10.3	10.3	77	6.5	19	39	247	0.00	996.888	0	0.000	0
20080312 06:00	10.4	10.4	10.4	75	6.2	24	39	247	0.00	996.888	0	0.060	0
20080312 06:05	10.6	10.6	10.6	74	6.2	23	43	247	0.00	996.888	0	0.000	0
20080312 06:10	10.7	10.7	10.7	73	6.1	24	45	247	0.00	996.922	0	0.000	0
20080312 06:15	10.7	10.7	10.7	73	6.1	19	35	247	0.00	997.023	0	0.000	0
20080312 06:20	10.9	10.9	10.9	72	6.0	26	56	247	0.20	996.956	0	0.000	0
20080312 06:25	10.9	10.9	10.9	72	6.1	26	51	247	0.00	997.023	0	0.000	0
20080312 06:30	11.0	11.0	11.0	72	6.1	21	42	247	0.00	996.820	0	0.000	0
20080312 06:35	11.0	11.0	11.0	72	6.1	21	42	247	0.00	996.854	0	0.000	0
20080312 06:40	11.1	11.1	11.1	72	6.2	24	48	270	0.00	996.990	2	0.000	0
20080312 06:45	11.1	11.1	11.1	72	6.2	21	35	247	0.00	997.023	7	0.000	0
20080312 06:50	11.1	11.1	11.1	72	6.2	24	51	247	0.00	997.159	14	0.000	0
20080312 06:55	11.1	11.1	11.1	71	6.1	21	35	247	0.00	997.193	14	0.000	0
20080312 07:00	11.2	11.2	11.2	71	6.1	23	47	247	0.00	997.193	12	0.060	0
20080312 07:05	11.1	11.1	11.1	71	6.1	21	35	247	0.00	997.260	14	0.000	0
20080312 07:10	11.2	11.2	11.2	70	6.0	21	40	247	0.00	997.328	17	0.000	0
20080312 07:15	11.3	11.3	11.3	70	6.0	21	40	247	0.00	997.362	22	0.000	0
20080312 07:20	11.4	11.4	11.4	69	5.9	21	40	247	0.00	997.328	24	0.000	0
20080312 07:25	11.4	11.4	11.4	69	5.9	19	37	247	0.00	997.497	48	0.000	0
20080312 07:30	11.4	11.4	11.4	69	6.0	23	37	247	0.00	997.565	53	0.000	0
20080312 07:35	11.4	11.4	11.4	69	6.0	19	37	247	0.00	997.633	31	0.000	0
20080312 07:40	11.4	11.4	11.4	69	6.0	19	43	247	0.00	998.005	30	0.000	0
20080312 07:45	11.6	11.6	11.6	68	5.9	23	42	247	0.00	998.005	61	0.000	0
20080312 07:50	11.6	11.6	11.6	69	6.1	23	39	247	0.00	998.073	69	0.000	0
20080312 07:55	11.6	11.6	11.6	69	6.1	21	34	247	0.00	998.107	80	0.000	0
20080312 08:00	11.6	11.6	11.6	69	6.1	18	29	247	0.00	998.107	92	0.080	0
20080312 08:05	11.6	11.6	11.6	69	6.1	19	34	247	0.00	998.209	53	0.000	0
20080312 08:10	11.6	11.6	11.6	69	6.1	21	40	247	0.00	998.141	56	0.000	0
20080312 08:15	11.7	11.7	11.7	68	6.0	23	43	247	0.00	998.073	102	0.000	0
20080312 08:20	11.8	11.8	11.8	68	6.1	24	43	247	0.00	998.141	84	0.000	0
20080312 08:25	11.8	11.8	11.8	68	6.1	18	40	270	0.00	998.242	86	0.000	0
20080312 08:30	11.8	11.8	11.8	68	6.1	19	40	270	0.00	998.141	83	0.000	0
20080312 08:35	11.8	11.8	11.8	68	6.1	18	37	247	0.00	998.209	88	0.000	0
20080312 08:40	11.9	11.9	11.9	67	6.0	21	42	270	0.00	998.344	79	0.000	0
20080312 08:45	11.9	11.9	11.9	67	6.0	16	29	270	0.00	998.513	39	0.000	0
20080312 08:50	11.8	11.8	11.8	68	6.1	18	37	270	0.00	998.547	26	0.000	0
20080312 08:55	11.4	11.4	11.4	69	5.9	19	43	270	0.00	998.683	23	0.000	0
20080312 09:00	9.9	9.2	9.9	74	5.5	6	19	292	0.00	998.784	24	0.080	0
20080312 09:05	9.1	8.3	9.1	77	5.3	6	11	292	0.00	998.717	33	0.000	0
20080312 09:10	8.6	7.7	8.6	80	5.3	6	18	315	0.00	998.852	33	0.000	0
20080312 09:15	8.2	6.2	8.2	82	5.3	11	23	292	0.00	999.326	19	0.000	0
20080312 09:20	7.9	6.2	7.9	83	5.2	10	19	292	0.00	998.987	24	0.000	0
20080312 09:25	7.7	6.0	7.7	84	5.2	10	23	315	0.00	999.123	22	0.000	0
20080312 09:30	7.6	5.2	7.6	85	5.2	13	21	292	0.00	998.987	24	0.000	0
20080312 09:35	7.4	5.1	7.4	86	5.3	13	24	292	0.00	999.326	35	0.000	0
20080312 09:40	7.3	5.0	7.3	87	5.3	13	24	315	0.20	999.360	37	0.000	0
20080312 09:45	7.2	4.4	7.2	88	5.4	16	24	315	0.20	999.699	44	0.000	0
20080312 09:50	7.1	3.3	7.1	88	5.2	24	35	315	0.60	1000.003	37	0.000	0
20080312 09:55	7.0	3.2	7.0	89	5.3	24	35	315	0.60	1000.207	43	0.000	0
20080312 10:00	6.9	3.2	6.9	89	5.2	23	42	315	0.20	1000.207	58	0.020	0
20080312 10:05	6.9	3.4	6.9	88	5.1	21	37	292	0.20	1000.613	45	0.000	0
20080312 10:10	6.9	3.3	6.9	88	5.1	23	37	270	0.20	1000.884	50	0.000	0
20080312 10:15	6.9	3.6	6.9	88	5.1	19	39	270	0.40	1000.748	57	0.000	0
20080312 10:20	7.0	4.1	7.0	88	5.1	16	37	270	0.20	1000.816	75	0.000	1
20080312 10:25	7.1	3.4	7.1	88	5.2	23	37	270	0.20	1000.715	114	0.000	1
20080312 10:30	7.2	4.1	7.2	88	5.3	18	27	270	0.20	1000.850	84	0.000	1
20080312 10:35	7.2	4.1	7.2	88	5.3	18	34	270	0.20	1000.884	60	0.000	0
20080312 10:40	7.1	4.4	7.1	88	5.2	14	26	270	0.20	1000.952	57	0.000	0
20080312 10:45	7.0	4.1	7.0	88	5.1	16	29	247	0.40	1001.087	64	0.000	0
20080312 10:50	6.9	4.0	6.9	88	5.1	16	35	270	0.20	1001.087	69	0.000	1
20080312 10:55	6.8	3.9	6.8	88	5.0	16	26	270	0.20	1001.087	53	0.000	0
20080312 11:00	6.8	3.6	6.8	88	4.9	18	35	270	0.40	1001.222	57	0.040	0
20080312 11:05	6.8	4.0	6.8	89	5.1	14	27	247	0.20	1001.087	105	0.000	1
20080312 11:10	6.8	3.7	6.8	89	5.1	18	37	270	0.00	1001.222	92	0.000	1
20080312 11:15	6.8	3.7	6.8	88	5.0	18	34	247	0.20	1001.324	112	0.000	1
20080312 11:20	6.9	4.2	6.9	89	5.2	14	32	247	0.20	1001.087	94	0.000	1
20080312 11:25	7.0	4.1	7.0	88	5.1	16	26	270	0.00	1001.155	132	0.000	1
20080312 11:30	7.2	4.5	7.2	89	5.5	14	26	247	0.00	1000.985	189	0.000	2
20080312 11:35	7.3	4.7	7.3	88	5.5	14	24	247	0.00	1000.985	198	0.000	2
20080312 11:40	7.6	5.2	7.6	89	5.9	13	26	270	0.00	1000.816	268	0.000	2
20080312 11:45	7.8	5.0	7.8	87	5.8	16	27	247	0.00	1000.816	231	0.000	2
20080312 11:50	7.9	6.0	7.9	87	5.9	11	27	247	0.20	1000.816	190	0.000	2
20080312 11:55	8.0	6.3	8.0	87	6.0	10	23	247	0.00	1000.985	131	0.000	1
20080312 12:00	7.9	5.7	7.9	86	5.7	13	24	247	0.00	1001.087	75	0.060	1
20080312 12:05	7.8	5.6	7.8	86	5.6	13	27	247	0.20	1000.884	70	0.000	1
20080312 12:10	7.7	5.2	7.7	87	5.7	14	29	247	0.20	1001.121	58	0.000	0
20080312 12:15	7.7	4.9	7.7	86	5.5	16	29	247	0.20	1000.884	43	0.000	0
20080312 12:20	7.6	5.1	7.6	87	5.6	14	27	247	0.00	1001.019	103	0.000	1
20080312 12:25	7.7	5.4	7.7	88	5.9	13	31	247	0.20	1000.613	205	0.000	2
20080312 12:30	8.0	5.1	8.0	87	6.0	18	29	247	0.00	1000.579	274	0.000	2
20080312 12:35	8.2	5.8	8.2	86	6.0	14	27	247	0.00	1000.477	205	0.000	2
20080312 12:40	8.4	6.6	8.4	86	6.2	11	23	247	0.00	1000.308	269	0.000	2
20080312 12:45	8.7	6.1	8.7	84	6.1	16	29	247	0.00	1000.139	363	0.000	3
20080312 12:50	8.9	6.5	8.9	84	6.4	16	27	247	0.00	999.969	470	0.000	3
20080312 12:55	9.3	6.8	9.3	82	6.4	18	32	247	0.00	999.800	576	0.000	3
20080312 13:00	9.6	7.2	9.6	82	6.6	16	32	247	0.00	999.597	352	0.100	3
20080312 13:05	9.8	7.5	9.8	80	6.5	16	29	247	0.00	999.360	485	0.000	3
20080312 13:10	10.2	10.2	10.2	80	6.9	18	35	247	0.00	999.326	597	0.000	3
20080312 13:15	10.3	10.3	10.3	78	6.6	19	37	247	0.00	999.292	212	0.000	3
20080312 13:20	10.6	10.6	10.6	78	6.9	16	24	270	0.00	999.157	578	0.000	3
20080312 13:25	11.0	11.0	11.0	76	6.9	19	37	247	0.00	998.920	717	0.000	3
20080312 13:30	10.9	10.9	10.9	75	6.7	18	40	247	0.00	998.852	295	0.000	2
20080312 13:35	11.0	11.0	11.0	75	6.7	16	32	247	0.00	998.886	195	0.000	2
20080312 13:40	10.8	10.8	10.8	76	6.7	16	31	247	0.00	999.021	79	0.000	1
20080312 13:45	10.3	10.3	10.3	80	7.0	16	27	247	0.00	999.224	56	0.000	0
20080312 13:50	9.9	8.4	9.9	82	7.0	11	21	270	0.20	999.258	35	0.000	0
20080312 13:55	9.6	7.2	9.6	84	7.0	16	32	270	0.60	999.699	21	0.000	0
20080312 14:00	9.2	6.2	9.2	85	6.8	21	40	270	1.40	999.732	28	0.120	0
20080312 14:05	8.7	5.2	8.7	85	6.3	26	45	270	0.80	999.495	71	0.000	0
20080312 14:10	8.6	5.1	8.6	84	6.1	26	40	270	0.20	999.495	66	0.000	0
20080312 14:15	8.8	6.2	8.8	86	6.6	18	35	247	0.00	999.699	336	0.000	2
20080312 14:20	9.3	6.7	9.3	83	6.5	18	40	247	0.00	999.394	459	0.000	2
20080312 14:25	9.8	7.2	9.8	80	6.5	19	48	247	0.00	999.462	490	0.000	2
20080312 14:30	10.1	10.1	10.1	78	6.4	18	34	270	0.00	999.563	190	0.000	2
20080312 14:35	10.3	10.3	10.3	80	7.0	13	27	270	0.00	999.326	373	0.000	2
20080312 14:40	10.3	10.3	10.3	79	6.8	14	26	247	0.00	999.428	161	0.000	2
20080312 14:45	10.6	10.6	10.6	78	6.9	13	29	247	0.00	999.360	308	0.000	2
20080312 14:50	10.6	10.6	10.6	78	6.9	13	29	247	0.00	999.462	282	0.000	2
20080312 14:55	10.6	10.6	10.6	77	6.7	11	23	247	0.00	999.394	182	0.000	1
20080312 15:00	10.4	10.4	10.4	75	6.1	14	29	247	0.00	999.360	173	0.100	1
20080312 15:05	10.1	10.1	10.1	76	6.1	13	26	247	0.00	999.665	128	0.000	1
20080312 15:10	10.1	10.1	10.1	75	5.8	11	27	247	0.00	999.631	147	0.000	1
20080312 15:15	9.9	7.7	9.9	75	5.7	16	27	247	0.00	999.563	102	0.000	1
20080312 15:20	9.9	8.1	9.9	76	5.9	13	23	247	0.00	999.597	161	0.000	1
20080312 15:25	10.2	10.2	10.2	76	6.1	13	26	247	0.00	999.597	168	0.000	1
20080312 15:30	10.2	10.2	10.2	74	5.7	13	27	247	0.00	999.665	101	0.000	1
20080312 15:35	10.1	10.1	10.1	73	5.4	16	26	247	0.00	999.834	55	0.000	0
20080312 15:40	10.0	10.0	10.0	74	5.6	13	23	247	0.00	999.969	157	0.000	1
20080312 15:45	10.1	10.1	10.1	74	5.6	13	24	247	0.00	1000.207	106	0.000	1
20080312 15:50	10.1	10.1	10.1	73	5.5	14	29	247	0.00	1000.173	145	0.000	1
20080312 15:55	10.4	10.4	10.4	73	5.8	14	24	247	0.00	1000.105	121	0.000	1
20080312 16:00	10.6	10.6	10.6	72	5.8	11	23	247	0.00	1000.071	141	0.080	1
20080312 16:05	10.8	10.8	10.8	72	6.0	13	24	247	0.00	1000.105	174	0.000	1
20080312 16:10	10.9	10.9	10.9	71	5.8	16	34	247	0.00	999.969	149	0.000	1
20080312 16:15	10.8	10.8	10.8	71	5.8	18	29	270	0.00	1000.037	142	0.000	1
20080312 16:20	10.9	10.9	10.9	71	5.8	16	24	247	0.00	1000.071	155	0.000	0
20080312 16:25	11.0	11.0	11.0	70	5.7	13	23	270	0.00	1000.477	138	0.000	0
20080312 16:30	10.9	10.9	10.9	67	5.0	14	34	247	0.00	1000.308	98	0.000	0
20080312 16:35	10.8	10.8	10.8	68	5.1	16	29	270	0.00	1000.579	65	0.000	0
20080312 16:40	10.4	10.4	10.4	66	4.3	14	27	270	0.00	1000.850	45	0.000	0
20080312 16:45	9.9	7.2	9.9	65	3.7	21	35	292	0.00	1001.222	23	0.000	0
20080312 16:50	9.6	7.1	9.6	67	3.7	18	34	292	0.00	1001.189	38	0.000	0
20080312 16:55	9.3	6.2	9.3	67	3.5	24	45	315	0.00	1001.324	37	0.000	0
20080312 17:00	9.1	5.9	9.1	69	3.7	24	40	315	0.00	1001.290	26	0.080	0
20080312 17:05	8.9	5.5	8.9	69	3.5	26	45	292	0.00	1001.663	11	0.000	0
20080312 17:10	8.7	5.0	8.7	70	3.6	29	50	315	0.00	1002.103	8	0.000	0
20080312 17:15	8.6	5.1	8.6	69	3.2	26	48	270	0.00	1002.408	25	0.000	0
20080312 17:20	8.4	4.6	8.4	71	3.4	29	53	292	0.00	1002.713	30	0.000	0
20080312 17:25	8.3	4.6	8.3	70	3.2	27	53	270	0.00	1002.950	51	0.000	0
20080312 17:30	8.3	5.1	8.3	71	3.3	21	37	270	0.00	1003.017	35	0.000	0
20080312 17:35	8.2	4.9	8.2	71	3.3	23	42	270	0.00	1003.254	13	0.000	0
20080312 17:40	7.8	3.5	7.8	71	2.9	32	63	292	0.20	1003.830	0	0.000	0
20080312 17:45	7.3	3.3	7.3	71	2.4	27	45	270	0.00	1004.033	2	0.000	0
20080312 17:50	7.1	3.2	7.1	69	1.8	26	48	270	0.00	1004.338	1	0.000	0
20080312 17:55	7.1	3.3	7.1	68	1.6	24	40	270	0.00	1004.541	9	0.000	0
20080312 18:00	7.1	3.4	7.1	67	1.3	23	43	270	0.00	1004.677	18	0.060	0
20080312 18:05	7.1	3.1	7.1	64	0.7	26	50	270	0.00	1004.846	12	0.000	0
20080312 18:10	7.0	3.2	7.0	63	0.4	24	43	270	0.00	1004.914	3	0.000	0
20080312 18:15	7.1	2.7	7.1	60	-0.2	31	55	270	0.00	1005.049	0	0.000	0
20080312 18:20	7.1	3.4	7.1	61	0.0	23	42	270	0.00	1005.286	0	0.000	0
20080312 18:25	7.1	3.3	7.1	60	-0.2	24	40	270	0.00	1005.456	0	0.000	0
20080312 18:30	7.1	3.4	7.1	59	-0.4	23	37	270	0.00	1005.760	0	0.000	0
20080312 18:35	7.1	3.4	7.1	60	-0.2	23	45	270	0.00	1005.862	0	0.000	0
20080312 18:40	7.0	3.0	7.0	59	-0.5	26	42	270	0.00	1005.963	0	0.000	0
20080312 18:45	6.9	3.3	6.9	60	-0.3	23	50	270	0.00	1006.031	0	0.000	0
20080312 18:50	6.8	3.5	6.8	60	-0.4	19	34	270	0.00	1006.302	0	0.000	0
20080312 18:55	6.8	3.1	6.8	60	-0.4	23	35	270	0.00	1006.471	0	0.000	0
20080312 19:00	6.7	3.2	6.7	61	-0.3	21	31	270	0.00	1006.641	0	0.060	0
20080312 19:05	6.7	3.5	6.7	60	-0.5	18	35	270	0.00	1006.844	0	0.000	0
20080312 19:10	6.6	3.0	6.6	60	-0.6	21	35	270	0.00	1006.945	0	0.000	0
20080312 19:15	6.6	2.8	6.6	61	-0.4	23	37	270	0.00	1006.844	0	0.000	0
20080312 19:20	6.6	2.8	6.6	60	-0.6	23	39	270	0.00	1006.844	0	0.000	0
20080312 19:25	6.5	3.5	6.5	61	-0.5	16	27	270	0.00	1007.047	0	0.000	0
20080312 19:30	6.4	3.6	6.4	60	-0.8	14	31	270	0.00	1007.047	0	0.000	0
20080312 19:35	6.4	3.8	6.4	62	-0.4	13	23	270	0.00	1007.318	0	0.000	0
20080312 19:40	6.3	4.0	6.3	62	-0.4	11	19	247	0.00	1007.420	0	0.000	0
20080312 19:45	6.3	3.4	6.3	62	-0.5	14	24	270	0.00	1007.589	0	0.000	0
20080312 19:50	6.3	3.4	6.3	61	-0.7	14	29	247	0.00	1007.657	0	0.000	0
20080312 19:55	6.2	3.3	6.2	61	-0.7	14	26	270	0.00	1007.690	0	0.000	0
20080312 20:00	6.2	3.3	6.2	61	-0.8	14	26	270	0.00	1007.758	0	0.060	0
20080312 20:05	6.2	3.0	6.2	59	-1.2	16	27	270	0.00	1007.961	0	0.000	0
20080312 20:10	6.1	3.0	6.1	60	-1.1	16	29	270	0.00	1008.029	0	0.000	0
20080312 20:15	6.1	3.4	6.1	60	-1.1	13	23	270	0.00	1008.232	0	0.000	0
20080312 20:20	6.1	3.1	6.1	59	-1.3	14	24	270	0.00	1008.402	0	0.000	0
20080312 20:25	6.1	3.4	6.1	59	-1.3	13	24	270	0.00	1008.435	0	0.000	0
20080312 20:30	6.0	3.1	6.0	58	-1.6	14	32	270	0.00	1008.605	0	0.000	0
20080312 20:35	5.9	2.8	5.9	58	-1.7	16	31	270	0.00	1008.571	0	0.000	0
20080312 20:40	6.0	3.1	6.0	58	-1.6	14	27	270	0.00	1008.402	0	0.000	0
20080312 20:45	6.0	2.6	6.0	56	-2.1	18	34	270	0.00	1008.435	0	0.000	0
20080312 20:50	6.1	2.6	6.1	56	-2.0	19	29	270	0.00	1008.605	0	0.000	0
20080312 20:55	6.2	3.0	6.2	57	-1.7	16	31	270	0.00	1008.876	0	0.000	0
20080312 21:00	6.1	3.8	6.1	58	-1.5	11	29	247	0.00	1008.910	0	0.060	0
20080312 21:05	6.1	3.7	6.1	58	-1.6	11	26	247	0.00	1009.214	0	0.000	0
20080312 21:10	6.0	3.9	6.0	59	-1.4	10	19	247	0.00	1009.316	0	0.000	0
20080312 21:15	5.9	2.8	5.9	60	-1.2	16	24	270	0.00	1009.553	0	0.000	0
20080312 21:20	6.0	2.8	6.0	60	-1.2	16	29	270	0.00	1009.655	0	0.000	0
20080312 21:25	6.1	2.7	6.1	60	-1.1	18	29	247	0.00	1009.756	0	0.000	0
20080312 21:30	6.0	2.6	6.0	61	-0.9	18	37	270	0.00	1010.027	0	0.000	0
20080312 21:35	5.9	2.6	5.9	61	-1.0	18	32	270	0.00	1010.129	0	0.000	0
20080312 21:40	5.8	2.4	5.8	63	-0.7	18	35	270	0.00	1010.366	0	0.000	0
20080312 21:45	5.8	2.1	5.8	63	-0.7	19	34	247	0.00	1010.501	0	0.000	0
20080312 21:50	5.7	2.1	5.7	64	-0.6	19	35	247	0.00	1010.738	0	0.000	0
20080312 21:55	5.7	1.5	5.7	65	-0.4	24	40	247	0.00	1010.941	0	0.000	0
20080312 22:00	5.6	1.4	5.6	64	-0.7	24	51	247	0.00	1011.111	0	0.060	0
20080312 22:05	5.5	1.6	5.5	65	-0.6	21	37	270	0.00	1011.179	0	0.000	0
20080312 22:10	5.4	2.2	5.4	66	-0.4	16	32	247	0.00	1011.212	0	0.000	0
20080312 22:15	5.3	1.8	5.3	67	-0.3	18	27	247	0.00	1011.314	0	0.000	0
20080312 22:20	5.3	1.9	5.3	67	-0.3	16	26	270	0.00	1011.517	0	0.000	0
20080312 22:25	5.2	2.1	5.2	68	-0.2	14	26	247	0.00	1011.653	0	0.000	0
20080312 22:30	5.2	1.7	5.2	67	-0.4	18	37	247	0.00	1011.822	0	0.000	0
20080312 22:35	5.3	1.7	5.3	67	-0.3	18	34	270	0.00	1011.653	0	0.000	0
20080312 22:40	5.2	2.1	5.2	66	-0.6	14	29	247	0.00	1011.856	0	0.000	0
20080312 22:45	5.2	1.4	5.2	65	-0.9	19	37	247	0.00	1011.856	0	0.000	0
20080312 22:50	5.2	1.4	5.2	65	-0.8	19	32	247	0.00	1011.822	0	0.000	0
20080312 22:55	5.1	1.3	5.1	65	-0.9	19	32	270	0.00	1011.924	0	0.000	0
20080312 23:00	5.1	0.9	5.1	65	-1.0	23	37	270	0.00	1011.957	0	0.040	0
20080312 23:05	5.1	1.0	5.1	66	-0.8	21	35	247	0.00	1011.957	0	0.000	0
20080312 23:10	5.1	0.5	5.1	63	-1.4	26	43	270	0.00	1012.161	0	0.000	0
20080312 23:15	4.9	0.5	4.9	64	-1.3	24	43	247	0.00	1012.262	0	0.000	0
20080312 23:20	4.7	0.8	4.7	66	-1.1	19	35	247	0.00	1012.431	0	0.000	0
20080312 23:25	4.6	0.8	4.6	66	-1.2	18	35	247	0.00	1012.533	0	0.000	0
20080312 23:30	4.5	0.2	4.5	67	-1.1	23	40	270	0.00	1012.601	0	0.000	0
20080312 23:35	4.4	0.6	4.4	69	-0.8	18	34	270	0.00	1012.736	0	0.000	0
20080312 23:40	4.3	0.8	4.3	70	-0.7	16	32	247	0.00	1012.702	0	0.000	0
20080312 23:45	4.3	0.5	4.3	70	-0.7	18	32	247	0.00	1012.736	0	0.000	0
20080312 23:50	4.2	0.6	4.2	71	-0.6	16	29	247	0.00	1012.736	0	0.000	0
20080312 23:55	4.2	1.2	4.2	71	-0.6	13	23	247	0.00	1012.669	0	0.000	0
20080312 24:00	4.2	1.2	4.2	71	-0.6	13	24	247	0.00	1012.669	0	0.040	0



Please note the license to use and transfer of this data:
http://creativecommons.org/licenses/by-nc-sa/3.0/deed.en

Bitte beachten sie die Lizenz zur Verwertung und Weitergabe der Daten:
http://creativecommons.org/licenses/by-nc-sa/3.0/deed.de

zurück zur Übersicht der Archivdaten (Monats und Tagesdaten)

Cookies helfen bei der Bereitstellung von Inhalten. Durch die Nutzung dieser Seiten erklärst du dich damit einverstanden, dass Cookies auf deinem Rechner gespeichert werden. Weitere Information